Decoded Metar for LFMH (ST.-ETIENNE in FRANCE) (IATA:EBU) | Meteo·Mobile Aviation Weather
aviador You're here:

LFMH Decoded Metar

ST.-ETIENNE in FRANCE
Report Time2019-07-21 16:30:00
UTC Time2019-07-21 16:52:21
Flight Rules vfr VFR
Wind360° at 06 kt
W.Decomp.*RWY 36: 6.0 kt HW 0.1 kt LCW
Visibility9999 m
Phenomena:N/A
Clouds:N/A
Expected CloudBase > 5,600 ft AGL from Temp-Dew spread
CeilingNone
Temp31°C (ISA +19)
Dew Point17°C (43% RH)
Heat Index31.4°C
QNH1021 hPa
Density Alt3,438 ft
Elevation1,319 ft
Report Wrong Elevation
Raw Report
LFMH 211630Z AUTO 36006KT 300V060 CAVOK 31/17 Q1021 NOSIG=

Extra information for LFMH:More info

Metar Taf Metar & Taf Last 4 Metars F.Rules Stats Wind Profile Meteogram Temp Stats Airport Information Weather charts Add Link Nearby VenuesMetar ALERT Operation Metar Decoded Social comments